sensor_id;sensor_type;location;lat;lon;timestamp;P1;durP1;ratioP1;P2;durP2;ratioP2
29916;SDS011;16786;49.466;11.068;2023-04-25T00:02:04;7.40;;;5.63;;
29916;SDS011;16786;49.466;11.068;2023-04-25T00:04:31;8.65;;;6.30;;
29916;SDS011;16786;49.466;11.068;2023-04-25T00:07:00;9.40;;;5.60;;
29916;SDS011;16786;49.466;11.068;2023-04-25T00:09:28;8.80;;;6.00;;
29916;SDS011;16786;49.466;11.068;2023-04-25T00:11:56;10.95;;;7.18;;
29916;SDS011;16786;49.466;11.068;2023-04-25T00:14:23;7.38;;;5.68;;
29916;SDS011;16786;49.466;11.068;2023-04-25T00:16:51;9.85;;;6.05;;
29916;SDS011;16786;49.466;11.068;2023-04-25T00:19:18;9.60;;;5.85;;
29916;SDS011;16786;49.466;11.068;2023-04-25T00:21:45;8.77;;;5.70;;
29916;SDS011;16786;49.466;11.068;2023-04-25T00:24:13;8.02;;;5.82;;
29916;SDS011;16786;49.466;11.068;2023-04-25T00:26:41;8.65;;;6.22;;
29916;SDS011;16786;49.466;11.068;2023-04-25T00:29:08;6.63;;;5.07;;
29916;SDS011;16786;49.466;11.068;2023-04-25T00:31:36;8.60;;;5.82;;
29916;SDS011;16786;49.466;11.068;2023-04-25T00:34:05;9.18;;;6.22;;
29916;SDS011;16786;49.466;11.068;2023-04-25T00:36:34;7.80;;;5.50;;
29916;SDS011;16786;49.466;11.068;2023-04-25T00:39:02;7.82;;;6.05;;
29916;SDS011;16786;49.466;11.068;2023-04-25T00:41:31;8.82;;;5.88;;
29916;SDS011;16786;49.466;11.068;2023-04-25T00:43:59;7.07;;;5.35;;
29916;SDS011;16786;49.466;11.068;2023-04-25T00:46:30;8.82;;;5.80;;
29916;SDS011;16786;49.466;11.068;2023-04-25T00:48:58;8.07;;;5.00;;
29916;SDS011;16786;49.466;11.068;2023-04-25T00:51:25;8.70;;;5.63;;
29916;SDS011;16786;49.466;11.068;2023-04-25T00:53:53;7.28;;;5.47;;
29916;SDS011;16786;49.466;11.068;2023-04-25T00:56:21;8.27;;;5.70;;
29916;SDS011;16786;49.466;11.068;2023-04-25T00:58:49;7.05;;;5.40;;
29916;SDS011;16786;49.466;11.068;2023-04-25T01:01:19;7.32;;;5.20;;
29916;SDS011;16786;49.466;11.068;2023-04-25T01:03:47;6.00;;;4.63;;
29916;SDS011;16786;49.466;11.068;2023-04-25T01:06:17;8.38;;;5.43;;
29916;SDS011;16786;49.466;11.068;2023-04-25T01:08:45;7.70;;;5.07;;
29916;SDS011;16786;49.466;11.068;2023-04-25T01:11:12;7.35;;;5.00;;
29916;SDS011;16786;49.466;11.068;2023-04-25T01:13:40;6.90;;;4.85;;
29916;SDS011;16786;49.466;11.068;2023-04-25T01:16:08;6.30;;;4.88;;
29916;SDS011;16786;49.466;11.068;2023-04-25T01:18:37;8.10;;;5.38;;
29916;SDS011;16786;49.466;11.068;2023-04-25T01:21:07;7.88;;;4.72;;
29916;SDS011;16786;49.466;11.068;2023-04-25T01:23:37;7.95;;;4.97;;
29916;SDS011;16786;49.466;11.068;2023-04-25T01:26:08;6.97;;;4.85;;
29916;SDS011;16786;49.466;11.068;2023-04-25T01:28:37;7.95;;;4.57;;
29916;SDS011;16786;49.466;11.068;2023-04-25T01:31:06;8.10;;;5.05;;
29916;SDS011;16786;49.466;11.068;2023-04-25T01:33:34;8.35;;;5.32;;
29916;SDS011;16786;49.466;11.068;2023-04-25T01:36:01;6.88;;;4.90;;
29916;SDS011;16786;49.466;11.068;2023-04-25T01:38:29;7.13;;;4.32;;
29916;SDS011;16786;49.466;11.068;2023-04-25T01:40:57;6.65;;;4.90;;
29916;SDS011;16786;49.466;11.068;2023-04-25T01:43:24;8.38;;;5.13;;
29916;SDS011;16786;49.466;11.068;2023-04-25T01:45:53;8.27;;;5.18;;
29916;SDS011;16786;49.466;11.068;2023-04-25T01:48:21;6.75;;;5.38;;
29916;SDS011;16786;49.466;11.068;2023-04-25T01:50:48;7.03;;;5.20;;
29916;SDS011;16786;49.466;11.068;2023-04-25T01:53:16;8.40;;;4.80;;
29916;SDS011;16786;49.466;11.068;2023-04-25T01:55:45;8.00;;;5.22;;
29916;SDS011;16786;49.466;11.068;2023-04-25T02:01:02;9.73;;;4.85;;
29916;SDS011;16786;49.466;11.068;2023-04-25T02:03:37;7.82;;;5.25;;
29916;SDS011;16786;49.466;11.068;2023-04-25T02:06:09;9.02;;;5.20;;
29916;SDS011;16786;49.466;11.068;2023-04-25T02:08:41;7.25;;;5.60;;
29916;SDS011;16786;49.466;11.068;2023-04-25T02:11:11;6.47;;;4.90;;
29916;SDS011;16786;49.466;11.068;2023-04-25T02:13:44;6.82;;;5.05;;
29916;SDS011;16786;49.466;11.068;2023-04-25T02:16:37;8.13;;;5.20;;
29916;SDS011;16786;49.466;11.068;2023-04-25T02:19:06;6.75;;;4.90;;
29916;SDS011;16786;49.466;11.068;2023-04-25T02:21:33;7.43;;;5.07;;
29916;SDS011;16786;49.466;11.068;2023-04-25T02:24:03;10.55;;;5.72;;
29916;SDS011;16786;49.466;11.068;2023-04-25T02:26:33;6.53;;;5.00;;
29916;SDS011;16786;49.466;11.068;2023-04-25T02:29:00;7.55;;;5.15;;
29916;SDS011;16786;49.466;11.068;2023-04-25T02:31:27;8.77;;;5.68;;
29916;SDS011;16786;49.466;11.068;2023-04-25T02:33:57;8.98;;;5.25;;
29916;SDS011;16786;49.466;11.068;2023-04-25T02:36:24;7.95;;;5.45;;
29916;SDS011;16786;49.466;11.068;2023-04-25T02:38:53;8.65;;;5.65;;
29916;SDS011;16786;49.466;11.068;2023-04-25T02:41:20;8.63;;;5.30;;
29916;SDS011;16786;49.466;11.068;2023-04-25T02:43:47;7.75;;;5.45;;
29916;SDS011;16786;49.466;11.068;2023-04-25T02:46:17;8.10;;;5.25;;
29916;SDS011;16786;49.466;11.068;2023-04-25T02:49:05;8.88;;;5.75;;
29916;SDS011;16786;49.466;11.068;2023-04-25T02:51:34;8.93;;;6.10;;
29916;SDS011;16786;49.466;11.068;2023-04-25T02:54:02;9.27;;;6.22;;
29916;SDS011;16786;49.466;11.068;2023-04-25T02:56:32;11.27;;;6.75;;
29916;SDS011;16786;49.466;11.068;2023-04-25T02:59:00;9.00;;;6.68;;
29916;SDS011;16786;49.466;11.068;2023-04-25T03:01:28;9.18;;;6.72;;
29916;SDS011;16786;49.466;11.068;2023-04-25T03:03:55;10.02;;;6.82;;
29916;SDS011;16786;49.466;11.068;2023-04-25T03:06:23;8.85;;;6.32;;
29916;SDS011;16786;49.466;11.068;2023-04-25T03:08:51;12.38;;;7.30;;
29916;SDS011;16786;49.466;11.068;2023-04-25T03:11:19;14.18;;;7.55;;
29916;SDS011;16786;49.466;11.068;2023-04-25T03:13:47;13.18;;;7.95;;
29916;SDS011;16786;49.466;11.068;2023-04-25T03:16:15;16.67;;;7.45;;
29916;SDS011;16786;49.466;11.068;2023-04-25T03:18:43;10.68;;;7.57;;
29916;SDS011;16786;49.466;11.068;2023-04-25T03:21:10;11.27;;;7.50;;
29916;SDS011;16786;49.466;11.068;2023-04-25T03:23:38;11.43;;;8.05;;
29916;SDS011;16786;49.466;11.068;2023-04-25T03:26:06;10.05;;;7.40;;
29916;SDS011;16786;49.466;11.068;2023-04-25T03:28:34;11.77;;;8.23;;
29916;SDS011;16786;49.466;11.068;2023-04-25T03:31:01;11.88;;;8.35;;
29916;SDS011;16786;49.466;11.068;2023-04-25T03:33:29;10.68;;;8.13;;
29916;SDS011;16786;49.466;11.068;2023-04-25T03:35:56;12.18;;;8.25;;
29916;SDS011;16786;49.466;11.068;2023-04-25T03:38:24;11.80;;;8.45;;
29916;SDS011;16786;49.466;11.068;2023-04-25T03:40:51;13.35;;;9.25;;
29916;SDS011;16786;49.466;11.068;2023-04-25T03:43:24;11.38;;;7.75;;
29916;SDS011;16786;49.466;11.068;2023-04-25T03:45:58;11.43;;;7.88;;
29916;SDS011;16786;49.466;11.068;2023-04-25T03:48:26;12.38;;;8.18;;
29916;SDS011;16786;49.466;11.068;2023-04-25T03:50:54;13.40;;;7.57;;
29916;SDS011;16786;49.466;11.068;2023-04-25T03:53:23;12.88;;;8.30;;
29916;SDS011;16786;49.466;11.068;2023-04-25T03:56:14;10.63;;;7.95;;
29916;SDS011;16786;49.466;11.068;2023-04-25T03:58:44;11.00;;;8.10;;
29916;SDS011;16786;49.466;11.068;2023-04-25T04:01:12;12.45;;;8.20;;
29916;SDS011;16786;49.466;11.068;2023-04-25T04:03:41;12.68;;;8.82;;
29916;SDS011;16786;49.466;11.068;2023-04-25T04:06:08;12.05;;;8.23;;
29916;SDS011;16786;49.466;11.068;2023-04-25T04:08:42;11.40;;;8.20;;
29916;SDS011;16786;49.466;11.068;2023-04-25T04:11:10;11.38;;;8.13;;
29916;SDS011;16786;49.466;11.068;2023-04-25T04:13:38;11.27;;;7.95;;
29916;SDS011;16786;49.466;11.068;2023-04-25T04:16:07;13.68;;;8.10;;
29916;SDS011;16786;49.466;11.068;2023-04-25T04:18:35;10.43;;;7.90;;
29916;SDS011;16786;49.466;11.068;2023-04-25T04:21:02;10.90;;;7.85;;
29916;SDS011;16786;49.466;11.068;2023-04-25T04:23:33;11.75;;;7.80;;
29916;SDS011;16786;49.466;11.068;2023-04-25T04:26:05;11.40;;;7.85;;
29916;SDS011;16786;49.466;11.068;2023-04-25T04:28:39;15.23;;;8.98;;
29916;SDS011;16786;49.466;11.068;2023-04-25T04:31:36;13.32;;;8.60;;
29916;SDS011;16786;49.466;11.068;2023-04-25T04:34:04;12.23;;;9.25;;
29916;SDS011;16786;49.466;11.068;2023-04-25T04:36:33;13.05;;;8.27;;
29916;SDS011;16786;49.466;11.068;2023-04-25T04:39:01;14.48;;;8.85;;
29916;SDS011;16786;49.466;11.068;2023-04-25T04:41:50;14.20;;;8.50;;
29916;SDS011;16786;49.466;11.068;2023-04-25T04:44:35;11.32;;;7.80;;
29916;SDS011;16786;49.466;11.068;2023-04-25T04:47:10;13.73;;;8.50;;
29916;SDS011;16786;49.466;11.068;2023-04-25T04:49:59;11.25;;;8.18;;
29916;SDS011;16786;49.466;11.068;2023-04-25T04:52:49;14.02;;;9.10;;
29916;SDS011;16786;49.466;11.068;2023-04-25T04:55:46;13.30;;;8.98;;
29916;SDS011;16786;49.466;11.068;2023-04-25T04:58:40;14.85;;;9.23;;
29916;SDS011;16786;49.466;11.068;2023-04-25T05:01:23;12.60;;;8.57;;
29916;SDS011;16786;49.466;11.068;2023-04-25T05:04:27;12.93;;;8.48;;
29916;SDS011;16786;49.466;11.068;2023-04-25T05:07:04;14.00;;;8.93;;
29916;SDS011;16786;49.466;11.068;2023-04-25T05:10:02;12.68;;;8.77;;
29916;SDS011;16786;49.466;11.068;2023-04-25T05:12:50;11.15;;;8.20;;
29916;SDS011;16786;49.466;11.068;2023-04-25T05:15:36;14.40;;;8.50;;
29916;SDS011;16786;49.466;11.068;2023-04-25T05:18:19;11.70;;;8.20;;
29916;SDS011;16786;49.466;11.068;2023-04-25T05:21:24;13.93;;;8.60;;
29916;SDS011;16786;49.466;11.068;2023-04-25T05:24:27;12.38;;;8.35;;
29916;SDS011;16786;49.466;11.068;2023-04-25T05:27:20;11.32;;;7.10;;
29916;SDS011;16786;49.466;11.068;2023-04-25T05:30:08;11.48;;;7.63;;
29916;SDS011;16786;49.466;11.068;2023-04-25T05:33:14;11.88;;;8.50;;
29916;SDS011;16786;49.466;11.068;2023-04-25T05:35:44;13.85;;;8.50;;
29916;SDS011;16786;49.466;11.068;2023-04-25T05:38:11;11.15;;;8.00;;
29916;SDS011;16786;49.466;11.068;2023-04-25T05:40:59;11.40;;;7.97;;
29916;SDS011;16786;49.466;11.068;2023-04-25T05:43:47;11.98;;;7.60;;
29916;SDS011;16786;49.466;11.068;2023-04-25T05:46:35;12.60;;;7.45;;
29916;SDS011;16786;49.466;11.068;2023-04-25T05:49:18;14.93;;;8.63;;
29916;SDS011;16786;49.466;11.068;2023-04-25T05:52:06;10.93;;;7.53;;
29916;SDS011;16786;49.466;11.068;2023-04-25T05:54:56;12.93;;;8.05;;
29916;SDS011;16786;49.466;11.068;2023-04-25T05:57:24;10.75;;;7.43;;
29916;SDS011;16786;49.466;11.068;2023-04-25T05:59:55;10.65;;;7.43;;
29916;SDS011;16786;49.466;11.068;2023-04-25T06:02:38;11.02;;;7.35;;
29916;SDS011;16786;49.466;11.068;2023-04-25T06:05:08;11.60;;;7.72;;
29916;SDS011;16786;49.466;11.068;2023-04-25T06:07:35;11.80;;;8.20;;
29916;SDS011;16786;49.466;11.068;2023-04-25T06:10:03;12.13;;;7.97;;
29916;SDS011;16786;49.466;11.068;2023-04-25T06:12:33;10.30;;;7.28;;
29916;SDS011;16786;49.466;11.068;2023-04-25T06:15:02;11.98;;;7.45;;
29916;SDS011;16786;49.466;11.068;2023-04-25T06:17:49;12.15;;;7.72;;
29916;SDS011;16786;49.466;11.068;2023-04-25T06:20:17;12.20;;;7.80;;
29916;SDS011;16786;49.466;11.068;2023-04-25T06:22:46;13.27;;;8.50;;
29916;SDS011;16786;49.466;11.068;2023-04-25T06:25:13;11.88;;;7.78;;
29916;SDS011;16786;49.466;11.068;2023-04-25T06:27:41;13.40;;;9.43;;
29916;SDS011;16786;49.466;11.068;2023-04-25T06:30:09;14.65;;;8.73;;
29916;SDS011;16786;49.466;11.068;2023-04-25T06:32:39;12.15;;;8.68;;
29916;SDS011;16786;49.466;11.068;2023-04-25T06:35:08;14.18;;;9.65;;
29916;SDS011;16786;49.466;11.068;2023-04-25T06:37:36;12.45;;;8.60;;
29916;SDS011;16786;49.466;11.068;2023-04-25T06:40:04;12.88;;;8.82;;
29916;SDS011;16786;49.466;11.068;2023-04-25T06:42:34;14.50;;;9.38;;
29916;SDS011;16786;49.466;11.068;2023-04-25T06:45:21;12.02;;;8.18;;
29916;SDS011;16786;49.466;11.068;2023-04-25T06:47:50;13.07;;;8.55;;
29916;SDS011;16786;49.466;11.068;2023-04-25T06:50:17;12.52;;;9.23;;
29916;SDS011;16786;49.466;11.068;2023-04-25T06:52:45;13.07;;;8.88;;
29916;SDS011;16786;49.466;11.068;2023-04-25T06:55:13;12.88;;;8.57;;
29916;SDS011;16786;49.466;11.068;2023-04-25T06:58:10;11.50;;;8.02;;
29916;SDS011;16786;49.466;11.068;2023-04-25T07:01:07;11.80;;;8.20;;
29916;SDS011;16786;49.466;11.068;2023-04-25T07:03:35;13.65;;;9.00;;
29916;SDS011;16786;49.466;11.068;2023-04-25T07:06:09;10.85;;;7.78;;
29916;SDS011;16786;49.466;11.068;2023-04-25T07:08:37;10.50;;;7.50;;
29916;SDS011;16786;49.466;11.068;2023-04-25T07:11:04;10.68;;;7.85;;
29916;SDS011;16786;49.466;11.068;2023-04-25T07:13:32;12.35;;;8.32;;
29916;SDS011;16786;49.466;11.068;2023-04-25T07:15:59;10.15;;;7.25;;
29916;SDS011;16786;49.466;11.068;2023-04-25T07:18:29;10.98;;;7.38;;
29916;SDS011;16786;49.466;11.068;2023-04-25T07:20:59;9.75;;;7.13;;
29916;SDS011;16786;49.466;11.068;2023-04-25T07:23:27;11.27;;;7.20;;
29916;SDS011;16786;49.466;11.068;2023-04-25T07:25:54;9.88;;;5.30;;
29916;SDS011;16786;49.466;11.068;2023-04-25T07:28:24;8.18;;;4.70;;
29916;SDS011;16786;49.466;11.068;2023-04-25T07:30:51;6.90;;;4.32;;
29916;SDS011;16786;49.466;11.068;2023-04-25T07:33:20;6.88;;;4.30;;
29916;SDS011;16786;49.466;11.068;2023-04-25T07:35:47;7.38;;;4.82;;
29916;SDS011;16786;49.466;11.068;2023-04-25T07:38:17;9.07;;;4.90;;
29916;SDS011;16786;49.466;11.068;2023-04-25T07:40:44;8.75;;;5.60;;
29916;SDS011;16786;49.466;11.068;2023-04-25T07:43:13;7.57;;;5.25;;
29916;SDS011;16786;49.466;11.068;2023-04-25T07:45:56;11.48;;;6.20;;
29916;SDS011;16786;49.466;11.068;2023-04-25T07:48:27;8.88;;;5.70;;
29916;SDS011;16786;49.466;11.068;2023-04-25T07:50:56;8.85;;;5.80;;
29916;SDS011;16786;49.466;11.068;2023-04-25T07:53:24;9.25;;;5.95;;
29916;SDS011;16786;49.466;11.068;2023-04-25T07:55:57;10.75;;;6.72;;
29916;SDS011;16786;49.466;11.068;2023-04-25T07:58:27;13.57;;;6.65;;
29916;SDS011;16786;49.466;11.068;2023-04-25T08:01:00;8.93;;;6.22;;
29916;SDS011;16786;49.466;11.068;2023-04-25T08:03:33;9.75;;;6.28;;
29916;SDS011;16786;49.466;11.068;2023-04-25T08:06:04;9.45;;;5.88;;
29916;SDS011;16786;49.466;11.068;2023-04-25T08:08:41;9.45;;;5.68;;
29916;SDS011;16786;49.466;11.068;2023-04-25T08:11:12;7.40;;;4.60;;
29916;SDS011;16786;49.466;11.068;2023-04-25T08:13:40;9.73;;;5.30;;
29916;SDS011;16786;49.466;11.068;2023-04-25T08:16:08;10.65;;;5.63;;
29916;SDS011;16786;49.466;11.068;2023-04-25T08:18:35;8.45;;;5.05;;
29916;SDS011;16786;49.466;11.068;2023-04-25T08:21:03;7.63;;;4.68;;
29916;SDS011;16786;49.466;11.068;2023-04-25T08:23:30;8.98;;;5.28;;
29916;SDS011;16786;49.466;11.068;2023-04-25T08:26:04;8.65;;;5.05;;
29916;SDS011;16786;49.466;11.068;2023-04-25T08:28:36;10.10;;;5.83;;
29916;SDS011;16786;49.466;11.068;2023-04-25T08:31:03;6.07;;;4.30;;
29916;SDS011;16786;49.466;11.068;2023-04-25T08:33:40;7.68;;;4.78;;
29916;SDS011;16786;49.466;11.068;2023-04-25T08:36:24;9.55;;;5.32;;
29916;SDS011;16786;49.466;11.068;2023-04-25T08:39:14;8.20;;;5.03;;
29916;SDS011;16786;49.466;11.068;2023-04-25T08:41:57;8.70;;;5.22;;
29916;SDS011;16786;49.466;11.068;2023-04-25T08:44:25;8.40;;;5.47;;
29916;SDS011;16786;49.466;11.068;2023-04-25T08:46:55;7.68;;;5.03;;
29916;SDS011;16786;49.466;11.068;2023-04-25T08:51:55;8.07;;;5.68;;
29916;SDS011;16786;49.466;11.068;2023-04-25T08:54:27;8.45;;;5.63;;
29916;SDS011;16786;49.466;11.068;2023-04-25T08:57:03;11.10;;;6.32;;
29916;SDS011;16786;49.466;11.068;2023-04-25T08:59:32;13.20;;;6.60;;
29916;SDS011;16786;49.466;11.068;2023-04-25T09:02:03;9.23;;;5.97;;
29916;SDS011;16786;49.466;11.068;2023-04-25T09:04:32;8.73;;;6.78;;
29916;SDS011;16786;49.466;11.068;2023-04-25T09:07:00;10.00;;;6.32;;
29916;SDS011;16786;49.466;11.068;2023-04-25T09:09:29;9.00;;;6.40;;
29916;SDS011;16786;49.466;11.068;2023-04-25T09:11:56;9.43;;;6.40;;
29916;SDS011;16786;49.466;11.068;2023-04-25T09:14:25;10.23;;;7.28;;
29916;SDS011;16786;49.466;11.068;2023-04-25T09:17:01;11.40;;;7.55;;
29916;SDS011;16786;49.466;11.068;2023-04-25T09:19:43;10.38;;;7.30;;
29916;SDS011;16786;49.466;11.068;2023-04-25T09:22:26;10.98;;;7.13;;
29916;SDS011;16786;49.466;11.068;2023-04-25T09:24:53;11.07;;;7.43;;
29916;SDS011;16786;49.466;11.068;2023-04-25T09:27:25;9.70;;;6.60;;
29916;SDS011;16786;49.466;11.068;2023-04-25T09:30:15;9.82;;;6.25;;
29916;SDS011;16786;49.466;11.068;2023-04-25T09:33:03;9.80;;;7.07;;
29916;SDS011;16786;49.466;11.068;2023-04-25T09:35:43;8.98;;;6.63;;
29916;SDS011;16786;49.466;11.068;2023-04-25T09:38:29;11.88;;;7.05;;
29916;SDS011;16786;49.466;11.068;2023-04-25T09:41:06;9.88;;;7.25;;
29916;SDS011;16786;49.466;11.068;2023-04-25T09:43:41;8.63;;;6.50;;
29916;SDS011;16786;49.466;11.068;2023-04-25T09:46:13;8.63;;;6.03;;
29916;SDS011;16786;49.466;11.068;2023-04-25T09:48:51;9.32;;;7.05;;
29916;SDS011;16786;49.466;11.068;2023-04-25T09:51:28;9.00;;;6.30;;
29916;SDS011;16786;49.466;11.068;2023-04-25T09:53:58;10.20;;;6.45;;
29916;SDS011;16786;49.466;11.068;2023-04-25T09:56:42;8.85;;;6.30;;
29916;SDS011;16786;49.466;11.068;2023-04-25T09:59:10;8.18;;;6.50;;
29916;SDS011;16786;49.466;11.068;2023-04-25T10:01:39;11.32;;;6.22;;
29916;SDS011;16786;49.466;11.068;2023-04-25T10:04:22;7.78;;;6.13;;
29916;SDS011;16786;49.466;11.068;2023-04-25T10:07:06;8.50;;;6.85;;
29916;SDS011;16786;49.466;11.068;2023-04-25T10:09:38;10.60;;;7.00;;
29916;SDS011;16786;49.466;11.068;2023-04-25T10:14:34;11.38;;;7.15;;
29916;SDS011;16786;49.466;11.068;2023-04-25T10:17:02;7.60;;;6.75;;
29916;SDS011;16786;49.466;11.068;2023-04-25T10:19:30;8.63;;;6.32;;
29916;SDS011;16786;49.466;11.068;2023-04-25T10:25:07;7.72;;;5.70;;
29916;SDS011;16786;49.466;11.068;2023-04-25T10:27:37;6.78;;;4.97;;
29916;SDS011;16786;49.466;11.068;2023-04-25T10:30:07;6.72;;;5.07;;
29916;SDS011;16786;49.466;11.068;2023-04-25T10:32:42;7.55;;;5.13;;
29916;SDS011;16786;49.466;11.068;2023-04-25T10:35:23;8.15;;;4.90;;
29916;SDS011;16786;49.466;11.068;2023-04-25T10:40:24;9.43;;;4.82;;
29916;SDS011;16786;49.466;11.068;2023-04-25T10:42:54;6.72;;;5.07;;
29916;SDS011;16786;49.466;11.068;2023-04-25T10:45:22;6.22;;;4.90;;
29916;SDS011;16786;49.466;11.068;2023-04-25T10:47:49;7.35;;;4.80;;
29916;SDS011;16786;49.466;11.068;2023-04-25T10:50:17;7.20;;;5.32;;
29916;SDS011;16786;49.466;11.068;2023-04-25T10:52:46;9.63;;;5.70;;
29916;SDS011;16786;49.466;11.068;2023-04-25T10:55:13;7.75;;;5.32;;
29916;SDS011;16786;49.466;11.068;2023-04-25T10:57:41;8.32;;;5.20;;
29916;SDS011;16786;49.466;11.068;2023-04-25T11:00:13;7.45;;;4.43;;
29916;SDS011;16786;49.466;11.068;2023-04-25T11:02:51;6.43;;;5.00;;
29916;SDS011;16786;49.466;11.068;2023-04-25T11:05:27;5.22;;;4.72;;
29916;SDS011;16786;49.466;11.068;2023-04-25T11:08:05;8.35;;;4.75;;
29916;SDS011;16786;49.466;11.068;2023-04-25T11:10:38;6.60;;;4.50;;
29916;SDS011;16786;49.466;11.068;2023-04-25T11:13:08;6.90;;;4.55;;
29916;SDS011;16786;49.466;11.068;2023-04-25T11:15:36;6.07;;;4.53;;
29916;SDS011;16786;49.466;11.068;2023-04-25T11:18:04;8.85;;;4.97;;
29916;SDS011;16786;49.466;11.068;2023-04-25T11:20:31;6.45;;;5.10;;
29916;SDS011;16786;49.466;11.068;2023-04-25T11:22:58;6.75;;;4.65;;
29916;SDS011;16786;49.466;11.068;2023-04-25T11:25:26;6.80;;;4.70;;
29916;SDS011;16786;49.466;11.068;2023-04-25T11:27:56;5.97;;;4.35;;
29916;SDS011;16786;49.466;11.068;2023-04-25T11:30:25;4.97;;;4.47;;
29916;SDS011;16786;49.466;11.068;2023-04-25T11:32:53;4.72;;;4.15;;
29916;SDS011;16786;49.466;11.068;2023-04-25T11:35:21;5.40;;;4.25;;
29916;SDS011;16786;49.466;11.068;2023-04-25T11:37:52;5.72;;;4.30;;
29916;SDS011;16786;49.466;11.068;2023-04-25T11:40:19;4.93;;;4.32;;
29916;SDS011;16786;49.466;11.068;2023-04-25T11:42:47;6.45;;;4.70;;
29916;SDS011;16786;49.466;11.068;2023-04-25T11:45:17;7.93;;;4.88;;
29916;SDS011;16786;49.466;11.068;2023-04-25T11:47:45;5.20;;;4.30;;
29916;SDS011;16786;49.466;11.068;2023-04-25T11:50:13;4.75;;;4.22;;
29916;SDS011;16786;49.466;11.068;2023-04-25T11:52:42;5.20;;;3.95;;
29916;SDS011;16786;49.466;11.068;2023-04-25T11:55:16;4.45;;;4.05;;
29916;SDS011;16786;49.466;11.068;2023-04-25T11:57:46;6.13;;;4.35;;
29916;SDS011;16786;49.466;11.068;2023-04-25T12:00:19;4.60;;;4.20;;
29916;SDS011;16786;49.466;11.068;2023-04-25T12:02:52;5.30;;;4.32;;
29916;SDS011;16786;49.466;11.068;2023-04-25T12:05:25;4.80;;;4.35;;
29916;SDS011;16786;49.466;11.068;2023-04-25T12:08:15;4.93;;;4.10;;
29916;SDS011;16786;49.466;11.068;2023-04-25T12:10:43;6.95;;;4.45;;
29916;SDS011;16786;49.466;11.068;2023-04-25T12:13:22;5.60;;;4.07;;
29916;SDS011;16786;49.466;11.068;2023-04-25T12:15:53;4.50;;;4.10;;
29916;SDS011;16786;49.466;11.068;2023-04-25T12:18:23;7.22;;;4.10;;
29916;SDS011;16786;49.466;11.068;2023-04-25T12:20:54;4.72;;;4.22;;
29916;SDS011;16786;49.466;11.068;2023-04-25T12:23:26;4.90;;;4.40;;
29916;SDS011;16786;49.466;11.068;2023-04-25T12:25:54;4.93;;;4.43;;
29916;SDS011;16786;49.466;11.068;2023-04-25T12:28:23;4.80;;;4.30;;
29916;SDS011;16786;49.466;11.068;2023-04-25T12:30:55;4.72;;;4.22;;
29916;SDS011;16786;49.466;11.068;2023-04-25T12:35:53;4.47;;;4.05;;
29916;SDS011;16786;49.466;11.068;2023-04-25T12:38:22;5.55;;;4.57;;
29916;SDS011;16786;49.466;11.068;2023-04-25T12:40:57;4.68;;;4.18;;
29916;SDS011;16786;49.466;11.068;2023-04-25T12:43:25;5.30;;;4.72;;
29916;SDS011;16786;49.466;11.068;2023-04-25T12:45:54;5.53;;;4.47;;
29916;SDS011;16786;49.466;11.068;2023-04-25T12:48:23;5.65;;;4.60;;
29916;SDS011;16786;49.466;11.068;2023-04-25T12:50:51;5.00;;;4.45;;
29916;SDS011;16786;49.466;11.068;2023-04-25T12:53:20;5.10;;;4.60;;
29916;SDS011;16786;49.466;11.068;2023-04-25T12:55:50;5.45;;;4.60;;
29916;SDS011;16786;49.466;11.068;2023-04-25T12:58:19;4.68;;;4.28;;
29916;SDS011;16786;49.466;11.068;2023-04-25T13:00:47;7.25;;;4.63;;
29916;SDS011;16786;49.466;11.068;2023-04-25T13:03:14;5.38;;;4.88;;
29916;SDS011;16786;49.466;11.068;2023-04-25T13:05:42;6.40;;;4.78;;
29916;SDS011;16786;49.466;11.068;2023-04-25T13:08:10;5.20;;;4.70;;
29916;SDS011;16786;49.466;11.068;2023-04-25T13:10:39;5.15;;;4.65;;
29916;SDS011;16786;49.466;11.068;2023-04-25T13:13:07;8.77;;;5.00;;
29916;SDS011;16786;49.466;11.068;2023-04-25T13:15:36;6.00;;;5.05;;
29916;SDS011;16786;49.466;11.068;2023-04-25T13:18:04;6.13;;;4.55;;
29916;SDS011;16786;49.466;11.068;2023-04-25T13:20:32;6.13;;;4.60;;
29916;SDS011;16786;49.466;11.068;2023-04-25T13:23:01;4.95;;;4.45;;
29916;SDS011;16786;49.466;11.068;2023-04-25T13:25:28;5.38;;;4.65;;
29916;SDS011;16786;49.466;11.068;2023-04-25T13:27:57;6.50;;;4.55;;
29916;SDS011;16786;49.466;11.068;2023-04-25T13:30:26;6.07;;;5.38;;
29916;SDS011;16786;49.466;11.068;2023-04-25T13:32:53;6.40;;;4.93;;
29916;SDS011;16786;49.466;11.068;2023-04-25T13:35:23;5.20;;;4.60;;
29916;SDS011;16786;49.466;11.068;2023-04-25T13:37:51;6.10;;;5.50;;
29916;SDS011;16786;49.466;11.068;2023-04-25T13:40:19;5.47;;;4.70;;
29916;SDS011;16786;49.466;11.068;2023-04-25T13:42:49;6.45;;;5.85;;
29916;SDS011;16786;49.466;11.068;2023-04-25T13:45:18;6.18;;;5.00;;
29916;SDS011;16786;49.466;11.068;2023-04-25T13:47:45;6.05;;;5.38;;
29916;SDS011;16786;49.466;11.068;2023-04-25T13:50:13;6.43;;;5.40;;
29916;SDS011;16786;49.466;11.068;2023-04-25T13:52:42;6.60;;;5.20;;
29916;SDS011;16786;49.466;11.068;2023-04-25T13:55:10;6.00;;;5.40;;
29916;SDS011;16786;49.466;11.068;2023-04-25T13:57:37;8.57;;;5.18;;
29916;SDS011;16786;49.466;11.068;2023-04-25T14:00:07;5.68;;;5.07;;
29916;SDS011;16786;49.466;11.068;2023-04-25T14:02:35;6.28;;;4.78;;
29916;SDS011;16786;49.466;11.068;2023-04-25T14:05:03;7.20;;;5.22;;
29916;SDS011;16786;49.466;11.068;2023-04-25T14:07:33;6.55;;;5.15;;
29916;SDS011;16786;49.466;11.068;2023-04-25T14:10:03;6.55;;;4.75;;
29916;SDS011;16786;49.466;11.068;2023-04-25T14:12:32;5.97;;;5.13;;
29916;SDS011;16786;49.466;11.068;2023-04-25T14:15:00;6.00;;;5.40;;
29916;SDS011;16786;49.466;11.068;2023-04-25T14:17:27;8.10;;;5.63;;
29916;SDS011;16786;49.466;11.068;2023-04-25T14:19:56;7.93;;;5.65;;
29916;SDS011;16786;49.466;11.068;2023-04-25T14:22:24;5.78;;;5.05;;
29916;SDS011;16786;49.466;11.068;2023-04-25T14:24:52;5.57;;;5.03;;
29916;SDS011;16786;49.466;11.068;2023-04-25T14:27:19;7.90;;;5.40;;
29916;SDS011;16786;49.466;11.068;2023-04-25T14:29:47;6.00;;;5.20;;
29916;SDS011;16786;49.466;11.068;2023-04-25T14:32:14;9.05;;;6.00;;
29916;SDS011;16786;49.466;11.068;2023-04-25T14:34:42;7.10;;;5.55;;
29916;SDS011;16786;49.466;11.068;2023-04-25T14:37:09;8.60;;;5.70;;
29916;SDS011;16786;49.466;11.068;2023-04-25T14:39:36;6.32;;;5.47;;
29916;SDS011;16786;49.466;11.068;2023-04-25T14:42:04;9.52;;;5.50;;
29916;SDS011;16786;49.466;11.068;2023-04-25T14:44:32;7.57;;;5.40;;
29916;SDS011;16786;49.466;11.068;2023-04-25T14:46:59;8.82;;;5.53;;
29916;SDS011;16786;49.466;11.068;2023-04-25T14:49:27;9.95;;;6.07;;
29916;SDS011;16786;49.466;11.068;2023-04-25T14:51:55;10.00;;;5.90;;
29916;SDS011;16786;49.466;11.068;2023-04-25T14:54:22;11.75;;;6.32;;
29916;SDS011;16786;49.466;11.068;2023-04-25T14:56:50;7.30;;;5.90;;
29916;SDS011;16786;49.466;11.068;2023-04-25T14:59:18;9.23;;;6.07;;
29916;SDS011;16786;49.466;11.068;2023-04-25T15:01:47;8.90;;;6.10;;
29916;SDS011;16786;49.466;11.068;2023-04-25T15:04:16;7.47;;;5.40;;
29916;SDS011;16786;49.466;11.068;2023-04-25T15:06:44;7.93;;;6.13;;
29916;SDS011;16786;49.466;11.068;2023-04-25T15:09:11;10.13;;;5.45;;
29916;SDS011;16786;49.466;11.068;2023-04-25T15:11:39;8.57;;;5.82;;
29916;SDS011;16786;49.466;11.068;2023-04-25T15:14:07;8.25;;;5.65;;